메인 페이지
METAR-TAF:

METAR-TAF

공항 :

칭기즈 칸 국제공항

울란바토르, 몽골

위도: 47-55N, 경도: 106-52E, 고도: 1306m

현재 날씨관측

예보는 13분 전, 15:30시(UTC)에 발표되었습니다.
북북동8kt
온도 14°C
습도 67%
기압 1016 hPa
시정 10km 이상
고도 3000ft 상공 구름 조금, 적란운.
고도 3300ft 상공 구름 보통

METAR: ZMUB 191530Z 02004MPS 9999 FEW030CB SCT033 14/08 Q1016 NOSIG RMK QFE654.5 71 NT

시각: 00:43 (15:43 UTC)

예보

예보는 5 시간 3분 전, 10:40시(UTC)에 발표되었습니다.
예보 대상 시간: 19일 12시부터 20일 18시까지 (UTC)
여러 방향의 바람 4kt
시정 10km 이상
고도 3000ft 상공 구름 조금, 적란운.
고도 3300ft 상공 구름 보통
확률 40% :
일시적
19일 12시부터 19일 17시까지 (UTC)
여러 방향의 바람 16kt
고도 3000ft 상공 구름 보통, 적란운.
고도 3300ft 상공 구름 보통
뇌우, 소나기

TAF: ZMUB 191040Z 1912/2018 VRB02MPS 9999 FEW030CB SCT033 TN07/1921Z TX21/2007Z PROB40 TEMPO 1912/1917 VRB08MPS TS SHRA SCT030CB SCT033

4,000개 이상의 공항 관측 자료 및 예보 (METAR 및 TAF 보고).

지도상에서 검색 가능한 기상관측소가 노란 점과 빨간 점으로 표시되어 있습니다.

기상관측소 명을 보려면 표시 위로 마우스를 이동하세요.

날씨 관측과 예보를 보려면 클릭하세요.

지도 변경 : 확대하려면 엑스 표시가 있는 녹색 버튼, 축소하려면 빼기 표시가 있는 녹색 버튼, 다음 페이지의 지도를 보려면 녹색 화살표를 클릭하세요.


METAR-TAF: